Latest Coastal Weather Observations for Williamtown

IDN60701

Issued at 6:01 am EDT Tuesday 24 January 2017 (issued every 10 minutes, with the page automatically refreshed every 10 minutes)

About coastal observations | Map of coastal stations | Coastal observations for NSW | Marine services | Other Formats
Station Details ID: 061078 Name: WILLIAMTOWN RAAF Lat: -32.79 Lon: 151.84 Height: 7.5 m
Data from the previous 72 hours. | See also: Recent months at Williamtown
Date/Time
EDT
Temp
°C
Wind Pressure Rain since
9am
mm
Weather Cloud Vis
km
Sea
Height
m
Swell
Dir  Spd
kts
Gust
kts
hPa Trend Height
m
Period
s
Dir
24/06:00am 22.6 NNE 3 5 1008.1 F 0.0 - - 10 - - - -
24/05:30am 22.6 N 3 5 1007.7 - 0.0 - - 10 - - - -
24/05:00am 22.9 NNE 5 6 1007.5 - 0.0 - - 10 - - - -
24/04:30am 23.3 NNE 6 8 1007.5 - 0.0 - - 10 - - - -
24/04:00am 23.2 NNE 5 6 1007.8 - 0.0 - - 10 - - - -
24/03:30am 23.7 N 2 5 1007.9 - 0.0 - - 10 - - - -
24/03:00am 23.8 N 5 7 1008.1 S 0.0 - - 10 - - - -
24/02:30am 24.2 N 3 5 1008.4 - 0.0 - - 10 - - - -
24/02:00am 24.8 NNE 7 9 1008.3 - 0.0 - - 10 - - - -
24/01:30am 25.0 NNE 8 11 1008.4 - 0.0 - - 10 - - - -
24/01:00am 25.2 NE 7 11 1008.8 - 0.0 - - 10 - - - -
24/12:30am 25.3 NE 8 11 1009.0 - 0.0 - - 10 - - - -
24/12:00am 25.2 NNE 8 11 1009.3 F 0.0 - - 10 - - - -
 
Date/Time
EDT
Temp
°C
Wind Pressure Rain since
9am
mm
Weather Cloud Vis
km
Sea
Height
m
Swell
Dir  Spd
kts
Gust
kts
hPa Trend Height
m
Period
s
Dir
23/11:30pm 25.6 NE 8 12 1009.3 - 0.0 - - 10 - - - -
23/11:00pm 25.9 NE 8 12 1009.6 - 0.0 - - 10 - - - -
23/10:30pm 26.3 NNE 7 10 1009.8 - 0.0 - - 10 - - - -
23/10:06pm 26.8 NE 8 13 1009.9 - 0.0 - - 10 - - - -
23/10:00pm 27.0 NNE 8 13 1009.9 - 0.0 - - 10 - - - -
23/09:30pm 27.6 NE 10 16 1009.7 - 0.0 - - 10 - - - -
23/09:00pm 27.8 NE 10 15 1009.5 F 0.0 - - 10 - - - -
23/08:30pm 27.7 NE 10 15 1009.2 - 0.0 - - 10 - - - -
23/08:00pm 28.2 NE 11 17 1009.1 - 0.0 - - 10 - - - -
23/07:30pm 29.0 NE 12 17 1008.8 - 0.0 - - 10 - - - -
23/07:00pm 30.0 ENE 13 19 1008.5 - 0.0 - - 10 - - - -
23/06:30pm 31.4 ENE 13 17 1008.5 - 0.0 - - 10 - - - -
23/06:00pm 32.2 ENE 13 18 1008.4 F 0.0 - - 10 - - - -
23/05:30pm 32.8 ENE 13 19 1008.7 - 0.0 - - 10 - - - -
23/05:00pm 33.1 ENE 12 16 1008.9 - 0.0 - - 10 - - - -
23/04:30pm 32.8 ENE 13 17 1009.3 - 0.0 - - 10 - - - -
23/04:00pm 32.5 ENE 13 17 1009.7 - 0.0 - - 10 - - - -
23/03:30pm 32.2 ENE 13 17 1010.1 - 0.0 - - 10 - - - -
23/03:00pm 31.7 ENE 13 17 1010.6 F 0.0 - - 10 - - - -
23/02:30pm 32.7 ENE 11 15 1010.9 - 0.0 - - 10 - - - -
23/02:00pm 33.0 NE 11 15 1011.2 - 0.0 - - 10 - - - -
23/01:30pm 32.6 ESE 10 15 1011.5 - 0.0 - - 10 - - - -
23/01:00pm 32.4 N 7 10 1012.2 - 0.0 - - 10 - - - -
23/12:30pm 31.6 N 8 11 1012.6 - 0.0 - Mostly clear 10 - - - -
23/12:00pm 30.6 N 8 11 1013.1 F 0.0 - Mostly clear 10 - - - -
23/11:30am 30.4 N 7 10 1013.6 - 0.0 - - 10 - - - -
23/11:00am 29.3 N 7 9 1013.9 - 0.0 - - 10 - - - -
23/10:30am 27.4 N 7 9 1014.2 - 0.0 - Mostly clear 10 - - - -
23/10:00am 26.1 N 7 9 1014.5 - 0.0 - Mostly clear 10 - - - -
23/09:30am 24.9 N 8 10 1014.9 - 0.0 - Mostly clear 10 - - - -
23/09:00am 24.0 NNE 8 10 1014.8 R 0.0 - Mostly clear 10 - - - -
23/08:30am 23.7 NNE 8 10 1014.6 - 0.0 - Mostly clear 10 - - - -
23/08:00am 23.0 NNE 7 10 1014.3 - 0.0 - - 10 - - - -
23/07:30am 22.2 NE 7 10 1014.1 - 0.0 - - 10 - - - -
23/07:00am 21.2 NE 8 10 1013.8 - 0.0 - - 10 - - - -
23/06:30am 20.3 - - - 1013.8 - 0.0 - - 10 - - - -
23/06:00am 20.2 - - - 1013.6 F 0.0 - - 10 - - - -
23/05:30am 20.5 - - - 1013.4 - 0.0 - - 10 - - - -
23/05:00am 20.6 - - - 1013.1 - 0.0 - - 10 - - - -
23/04:30am 20.5 - - - 1013.0 - 0.0 - - 10 - - - -
23/04:00am 20.9 - - - 1013.2 - 0.0 - - 10 - - - -
23/03:30am 20.8 - - - 1013.2 - 0.0 - - 10 - - - -
23/03:00am 21.1 - - - 1013.4 F 0.0 - - 10 - - - -
23/02:30am 21.3 - - - 1013.5 - 0.0 - - 10 - - - -
23/02:00am 21.4 - - - 1013.7 - 0.0 - - 10 - - - -
23/01:30am 21.6 - - - 1014.0 - 0.0 - - 10 - - - -
23/01:00am 21.8 - - - 1014.2 - 0.0 - - 10 - - - -
23/12:30am 21.9 - - - 1014.5 - 0.0 - - 10 - - - -
23/12:00am 22.0 - - - 1014.8 F 0.0 - - 10 - - - -
 
Date/Time
EDT
Temp
°C
Wind Pressure Rain since
9am
mm
Weather Cloud Vis
km
Sea
Height
m
Swell
Dir  Spd
kts
Gust
kts
hPa Trend Height
m
Period
s
Dir
22/11:30pm 22.2 - - - 1014.8 - 0.0 - - 10 - - - -
22/11:00pm 22.4 - - - 1014.8 - 0.0 - - 10 - - - -
22/10:30pm 22.5 - - - 1015.1 - 0.0 - - 10 - - - -
22/10:00pm 22.7 - - - 1015.0 - 0.0 - - 10 - - - -
22/09:30pm 23.0 NE 12 19 1014.8 - 0.0 - - 10 - - - -
22/09:00pm 22.9 ENE 10 16 1014.8 F 0.0 - - 10 - - - -
22/08:30pm 23.1 ENE 13 20 1014.8 - 0.0 - - 10 - - - -
22/08:00pm 23.4 ENE 17 21 1014.6 - 0.0 - - 10 - - - -
22/07:34pm 23.9 ENE 16 26 1014.5 - 0.0 - - 10 - - - -
22/07:30pm 24.0 ENE 16 21 1014.5 - 0.0 - - 10 - - - -
22/07:15pm 24.3 ENE 15 25 1014.3 - 0.0 - - 10 - - - -
22/07:00pm 24.7 ENE 15 23 1014.3 - 0.0 - - 10 - - - -
22/06:30pm 25.5 ENE 15 20 1014.0 - 0.0 - - 10 - - - -
22/06:00pm 25.9 E 15 20 1013.8 F 0.0 - - 10 - - - -
22/05:30pm 26.0 ESE 16 21 1013.8 - 0.0 - - 10 - - - -
22/05:00pm 26.3 ESE 18 23 1014.1 - 0.0 - - 10 - - - -
22/04:30pm 26.5 ESE 18 22 1014.3 - 0.0 - - 10 - - - -
22/04:00pm 26.5 ESE 17 22 1014.5 - 0.0 - - 10 - - - -
22/03:30pm 26.3 ESE 18 22 1014.9 - 0.0 - - 10 - - - -
22/03:00pm 26.8 E 14 21 1015.0 F 0.0 - - 10 - - - -
22/02:30pm 26.8 E 15 20 1015.3 - 0.0 - - 10 - - - -
22/02:00pm 27.0 ESE 15 20 1015.6 - 0.0 - - 10 - - - -
22/01:30pm 26.2 ESE 14 18 1015.9 - 0.0 - - 10 - - - -
22/01:00pm 26.4 ESE 13 17 1016.3 - 0.0 - Partly cloudy 10 - - - -
22/12:30pm 25.4 ESE 12 15 1016.7 - 0.0 - Partly cloudy 10 - - - -
22/12:00pm 26.2 E 9 14 1017.0 F 0.0 - Cloudy 10 - - - -
22/11:30am 24.5 SE 10 15 1017.1 - 0.0 - Partly cloudy 10 - - - -
22/11:00am 25.0 SE 9 14 1017.1 - 0.0 - Partly cloudy 10 - - - -
22/10:30am 25.1 ESE 7 10 1017.3 - 0.0 - Partly cloudy 10 - - - -
22/10:00am 24.8 E 7 10 1017.3 - 0.0 - Partly cloudy 10 - - - -
22/09:30am 24.5 SSE 6 8 1017.3 - 0.0 - Partly cloudy 10 - - - -
22/09:00am 24.1 SW 4 7 1017.2 F 0.0 - - 10 - - - -
22/08:30am 23.5 WSW 5 6 1017.2 - 0.0 - - 10 - - - -
22/08:00am 22.4 WSW 5 7 1017.4 - 0.0 - - 9 - - - -
22/07:30am 21.2 CALM 0 0 1017.2 - 0.0 - - 10 - - - -
22/07:00am 19.7 CALM 0 0 1016.8 - 0.0 - Partly cloudy 10 - - - -
22/06:30am 19.6 CALM 0 0 1016.4 - 0.0 - Cloudy 10 - - - -
22/06:00am 19.4 CALM 0 0 1016.2 F 0.0 - Cloudy 10 - - - -
22/05:30am 19.4 WSW 3 3 1016.0 - 0.0 - Cloudy 10 - - - -
22/05:00am 19.2 WSW 3 4 1015.7 - 0.0 - Cloudy 10 - - - -
22/04:30am 19.0 WSW 3 7 1015.5 - 0.0 - Cloudy 10 - - - -
22/04:00am 18.7 CALM 0 0 1015.4 - 0.0 - Cloudy 10 - - - -
22/03:30am 18.6 CALM 0 0 1015.5 - 0.0 - Cloudy 10 - - - -
22/03:00am 18.1 WSW 4 5 1015.7 R 0.0 - Cloudy 10 - - - -
22/02:30am 18.7 CALM 0 0 1015.8 - 0.0 - Cloudy 10 - - - -
22/02:00am 18.5 CALM 0 0 1016.0 - 0.0 - Cloudy 10 - - - -
22/01:30am 18.2 CALM 0 0 1016.1 - 0.0 - Cloudy 10 - - - -
22/01:00am 17.9 CALM 0 0 1016.2 - 0.0 - Partly cloudy 10 - - - -
22/12:30am 17.9 CALM 0 0 1016.4 - 0.0 - Partly cloudy 10 - - - -
22/12:00am 18.1 CALM 0 0 1016.3 R 0.0 - Mostly clear 10 - - - -
 
Date/Time
EDT
Temp
°C
Wind Pressure Rain since
9am
mm
Weather Cloud Vis
km
Sea
Height
m
Swell
Dir  Spd
kts
Gust
kts
hPa Trend Height
m
Period
s
Dir
21/11:30pm 18.5 WSW 3 4 1016.3 - 0.0 - Partly cloudy 10 - - - -
21/11:00pm 19.1 CALM 0 0 1016.3 - 0.0 - - 10 - - - -
21/10:30pm 19.5 CALM 0 3 1016.2 - 0.0 - Partly cloudy 10 - - - -
21/10:00pm 20.1 SE 3 5 1016.0 - 0.0 - Partly cloudy 10 - - - -
21/09:30pm 21.5 E 4 5 1015.6 - 0.0 - Partly cloudy 10 - - - -
21/09:00pm 21.3 ESE 5 6 1015.1 R 0.0 - - 10 - - - -
21/08:30pm 21.7 SE 6 7 1014.6 - 0.0 - - 10 - - - -
21/08:00pm 22.4 SE 8 10 1014.3 - 0.0 - Partly cloudy 10 - - - -
21/07:30pm 23.3 SE 10 13 1013.9 - 0.0 - Partly cloudy 10 - - - -
21/07:00pm 23.8 SSE 10 13 1013.5 - 0.0 - Partly cloudy 10 - - - -
21/06:30pm 23.9 SSE 11 15 1013.0 - 0.0 - - 10 - - - -
21/06:00pm 24.4 SSE 12 15 1012.6 R 0.0 - - 10 - - - -
21/05:30pm 24.3 SSE 13 17 1012.4 - 0.0 - - 10 - - - -
21/05:00pm 24.9 SSE 13 19 1012.2 - 0.0 - - 10 - - - -
21/04:30pm 24.5 SSE 14 19 1012.0 - 0.0 - - 10 - - - -
21/04:00pm 24.7 S 15 19 1011.9 - 0.0 - - 10 - - - -
21/03:30pm 25.1 S 14 18 1011.9 - 0.0 - - 10 - - - -
21/03:00pm 25.2 SSE 14 21 1011.8 R 0.0 - - 10 - - - -
21/02:30pm 24.8 S 13 19 1011.7 - 0.0 - Partly cloudy 10 - - - -
21/02:00pm 25.5 S 14 19 1011.6 - 0.0 - Partly cloudy 10 - - - -
21/01:30pm 24.2 S 13 21 1011.6 - 0.0 - Cloudy 10 - - - -
21/01:00pm 23.9 S 14 20 1011.6 - 0.0 - Cloudy 10 - - - -
21/12:30pm 24.0 SSW 15 19 1011.5 - 0.0 - Cloudy 10 - - - -
21/12:00pm 23.6 S 14 17 1011.4 R 0.0 - Cloudy 10 - - - -
21/11:30am 23.1 S 13 18 1011.3 - 0.0 - Cloudy 10 - - - -
21/11:00am 23.4 S 13 17 1011.0 - 0.0 - Cloudy 10 - - - -
21/10:30am 22.9 S 11 16 1011.0 - 0.0 - Cloudy 10 - - - -
21/10:00am 22.7 S 12 16 1010.5 - 0.0 - Cloudy 10 - - - -
21/09:30am 23.0 S 12 18 1010.3 - 0.0 - Cloudy 10 - - - -
21/09:00am 22.4 SSW 11 16 1010.0 R 6.4 - Cloudy 10 - - - -
21/08:30am 22.1 SSW 9 13 1009.7 - 6.4 - Partly cloudy 10 - - - -
21/08:00am 22.0 SSW 9 13 1009.3 - 6.4 - Cloudy 10 - - - -
21/07:30am 22.1 S 7 9 1008.8 - 6.4 - Partly cloudy 10 - - - -
21/07:00am 21.6 S 7 11 1008.2 - 6.4 - Partly cloudy 10 - - - -
21/06:30am 21.3 S 10 15 1007.9 - 6.4 - Partly cloudy 10 - - - -

Other Formats:

Comma delimited format used in spreadsheet applications
http://www.bom.gov.au/fwo/IDN60701/IDN60701.94776.axf

JavaScript Object Notation format (JSON) in row-major order
http://www.bom.gov.au/fwo/IDN60701/IDN60701.94776.json